Quick Links (Output Below):   Max & Min Temps   /   Climate Reports   /   Zone Forecasts
River Forecasts   /   Forestry Forecasts   /   Aviation Forecasts   /   Radars   /   Features

Terminal Aerodrome Forecast (Pine Bluff)

Pick a Site:
Arkadelphia | El Dorado | Fayetteville | Fort Smith | Harrison | Highfill | Hot Springs | Jonesboro
Little Rock | Monticello | Mountain Home | Pine Bluff | Texarkana

KPBF 071737Z 0718/0818 02005KT P6SM SCT050 SCT250
     FM080100 VRB03KT P6SM FEW050 SCT250
     FM080900 VRB03KT 4SM BR SCT050 BKN150
     FM081400 06005KT P6SM SCT050 BKN150=

 Latest METARs (Observations) 
How to Decode METARs
19Z KPBF 071853Z AUTO 10SM BKN050 BKN065 30/16 A3007 RMK AO2 SLP180
18Z KPBF 071753Z AUTO VRB06KT 10SM BKN048 OVC060 28/16 A3010 RMK AO2
         SLP188 T02780161 10294 20167 58009
17Z KPBF 071653Z AUTO VRB03KT 10SM CLR 28/17 A3011 RMK AO2 SLP195
16Z KPBF 071553Z AUTO VRB05KT 10SM CLR 26/17 A3012 RMK AO2 SLP198
15Z KPBF 071453Z AUTO 36005KT 10SM CLR 24/17 A3012 RMK AO2 SLP199
         T02390172 51013
14Z KPBF 071353Z AUTO 03005KT 10SM CLR 21/17 A3012 RMK AO2 SLP197
13Z KPBF 071253Z AUTO 36004KT 10SM CLR 18/17 A3010 RMK AO2 SLP189
12Z KPBF 071153Z AUTO 35004KT 10SM CLR 17/16 A3008 RMK AO2 SLP185
         T01720156 10189 20172 53013
11Z KPBF 071053Z AUTO 01006KT 10SM CLR 18/16 A3006 RMK AO2 SLP176
10Z KPBF 070953Z AUTO 36007KT 10SM CLR 18/16 A3005 RMK AO2 SLP172
***** Today's Observations (Above) *****

Back to Main Page

USA.gov is the U.S. government's official web portal to all federal, state and local government web resources and services.